Thetys II — FGTO — position and weather

sailwx.info

Track history (hours):
 
Tides and Currents Weather Stations Pressure Air Temp Water Temp Dewpoint Dewpoint Depression Visibility Wind Speed Wind Dir Waves Ship Positions

Oceanographic research ship Thetys II (France)

Last reported at 2019-Aug-23 22:55 UTC. Time now 2019-Aug-24 09:55 UTC.
Position N 42°47' E 005°56'.

Length 25 m; beam 8 m.

Type: Ship. MMSI: 227212000.

Date/timePositionNaut miles runAvg speedWind from/ knotsBaromVisibWave heightAir tempDewpointWater temp
2019-Aug-23 22:55N 42°47' E 005°56'19 1.5
2019-Aug-23 09:54N 43°06' E 005°55'2 4.1
2019-Aug-23 09:30N 43°06' E 005°53'0 0.0
2019-Aug-23 09:00N 43°06' E 005°53'0 0.0
2019-Aug-23 08:30N 43°06' E 005°53'0 0.0
2019-Aug-23 08:00N 43°06' E 005°53'0 0.0
2019-Aug-23 07:30N 43°06' E 005°53'0 0.0
2019-Aug-23 07:00N 43°06' E 005°53'0 0.0
2019-Aug-23 06:30N 43°06' E 005°53'0 0.0
2019-Aug-23 06:00N 43°06' E 005°53'4 6.7
2019-Aug-23 05:29N 43°05' E 005°58'29 5.6
2019-Aug-23 00:10N 43°05' E 006°38'2 6.9
2019-Aug-22 23:54N 43°06' E 006°40'3 6.9
2019-Aug-22 23:30N 43°08' E 006°43'4 7.1
2019-Aug-22 23:01N 43°11' E 006°46'4 7.0
2019-Aug-22 22:30N 43°13' E 006°49'4 7.1
2019-Aug-22 22:01N 43°16' E 006°53'4 7.1
2019-Aug-22 21:31N 43°18' E 006°56'4 7.2
2019-Aug-22 21:01N 43°21' E 006°59'4 7.1
2019-Aug-22 20:31N 43°24' E 007°02'4 7.0
2019-Aug-22 20:01N 43°27' E 007°05'3 6.7
2019-Aug-22 19:31N 43°29' E 007°08'4 8.0
2019-Aug-22 19:01N 43°32' E 007°12'4 8.7
2019-Aug-22 18:31N 43°36' E 007°14'4 8.9
2019-Aug-22 18:00N 43°40' E 007°17'1 2.3
2019-Aug-22 17:29N 43°42' E 007°17'0 0.0
2019-Aug-22 16:59N 43°42' E 007°17'0 0.0
2019-Aug-22 16:29N 43°42' E 007°17'0 0.0
2019-Aug-22 15:59N 43°42' E 007°17'0 0.0
2019-Aug-22 15:29N 43°42' E 007°17'0 0.0
2019-Aug-22 14:59N 43°42' E 007°17'0 0.0
2019-Aug-22 14:26N 43°42' E 007°17'0 0.0
2019-Aug-22 13:59N 43°42' E 007°17'0 0.0
2019-Aug-22 13:29N 43°42' E 007°17'0 0.0
2019-Aug-22 12:59N 43°42' E 007°17'0 0.0
2019-Aug-22 12:29N 43°42' E 007°17'0 0.0
2019-Aug-22 11:53N 43°42' E 007°17'0 0.0
2019-Aug-22 11:23N 43°42' E 007°17'0 0.0
2019-Aug-22 10:59N 43°42' E 007°17'0 0.0
2019-Aug-22 10:29N 43°42' E 007°17'0 0.0
2019-Aug-22 09:59N 43°42' E 007°17'0 0.0
2019-Aug-22 09:29N 43°42' E 007°17'0 0.0
2019-Aug-22 08:59N 43°42' E 007°17'0 0.0
2019-Aug-22 08:29N 43°42' E 007°17'0 0.0
2019-Aug-22 07:59N 43°42' E 007°17'0 0.0
2019-Aug-22 07:29N 43°42' E 007°17'0 0.0
2019-Aug-22 06:59N 43°42' E 007°17'0 0.0
2019-Aug-22 06:26N 43°42' E 007°17'0 0.0
2019-Aug-22 05:59N 43°42' E 007°17'0 0.0
2019-Aug-22 05:26N 43°42' E 007°17'0 0.0
2019-Aug-22 04:59N 43°42' E 007°17'0 0.0
2019-Aug-22 04:29N 43°42' E 007°17'0 0.0
2019-Aug-22 03:59N 43°42' E 007°17'0 0.0
2019-Aug-22 03:29N 43°42' E 007°17'0 0.0
2019-Aug-22 02:59N 43°42' E 007°17'0 0.0
2019-Aug-22 02:26N 43°42' E 007°17'0 0.0
2019-Aug-22 01:59N 43°42' E 007°17'0 0.0
2019-Aug-22 01:29N 43°42' E 007°17'0 0.0
2019-Aug-22 00:56N 43°42' E 007°17'0 0.0
2019-Aug-22 00:29N 43°42' E 007°17'0 0.0
2019-Aug-21 23:59N 43°42' E 007°17'0 0.0
2019-Aug-21 23:29N 43°42' E 007°17'0 0.0
2019-Aug-21 22:59N 43°42' E 007°17'0 0.0
2019-Aug-21 22:29N 43°42' E 007°17'0 0.0
2019-Aug-21 21:59N 43°42' E 007°17'0 0.0
2019-Aug-21 21:29N 43°42' E 007°17'0 0.0
2019-Aug-21 20:59N 43°42' E 007°17'0 0.0
2019-Aug-21 20:29N 43°42' E 007°17'0 0.0
2019-Aug-21 19:59N 43°42' E 007°17'0 0.0
2019-Aug-21 19:30N 43°42' E 007°17'0 0.0
2019-Aug-21 19:00N 43°42' E 007°17'0 0.0
2019-Aug-21 18:30N 43°42' E 007°17'0 0.0
2019-Aug-21 18:00N 43°42' E 007°17'0 0.0
2019-Aug-21 17:30N 43°42' E 007°17'1 1.4
2019-Aug-21 17:00N 43°41' E 007°18'611.4
2019-Aug-21 16:30N 43°38' E 007°24'611.6
2019-Aug-21 16:00N 43°34' E 007°31'611.4
2019-Aug-21 15:30N 43°32' E 007°37'611.3
2019-Aug-21 15:00N 43°29' E 007°44'611.3
2019-Aug-21 14:30N 43°26' E 007°51'0 0.9
2019-Aug-21 14:01N 43°25' E 007°51'0 0.2
2019-Aug-21 13:30N 43°25' E 007°51'0 0.3
2019-Aug-21 13:00N 43°25' E 007°51'0 0.5
2019-Aug-21 12:30N 43°25' E 007°51'0 0.6
2019-Aug-21 12:01N 43°24' E 007°51'2 4.0
2019-Aug-21 11:30N 43°23' E 007°53'0 0.6
2019-Aug-21 11:00N 43°23' E 007°53'0 0.6
2019-Aug-21 10:30N 43°22' E 007°54'0 0.4
2019-Aug-21 10:01N 43°22' E 007°53'0 0.6
2019-Aug-21 09:31N 43°22' E 007°54'0 0.5
2019-Aug-21 08:52N 43°22' E 007°54'0 0.6
2019-Aug-21 08:22N 43°22' E 007°54'2 6.1
2019-Aug-21 08:00N 43°24' E 007°52'510.5
2019-Aug-21 07:30N 43°27' E 007°46'510.3
2019-Aug-21 07:00N 43°31' E 007°41'510.1
2019-Aug-21 06:30N 43°33' E 007°35'510.2
2019-Aug-21 06:00N 43°36' E 007°29'510.2
2019-Aug-21 05:30N 43°38' E 007°23'510.1
2019-Aug-21 05:00N 43°41' E 007°17'0 0.4
2019-Aug-21 04:29N 43°42' E 007°17'0 0.0
2019-Aug-21 03:59N 43°42' E 007°17'0 0.0
2019-Aug-21 03:29N 43°42' E 007°17'0 0.0
2019-Aug-21 02:59N 43°42' E 007°17'0 0.0
2019-Aug-21 02:29N 43°42' E 007°17'0 0.0
2019-Aug-21 01:59N 43°42' E 007°17'0 0.0
2019-Aug-21 01:29N 43°42' E 007°17'0 0.0
2019-Aug-21 00:59N 43°42' E 007°17'0 0.0
2019-Aug-21 00:29N 43°42' E 007°17'0 0.0
2019-Aug-20 23:56N 43°42' E 007°17'0 0.0
2019-Aug-20 23:29N 43°42' E 007°17'0 0.0
2019-Aug-20 22:59N 43°42' E 007°17'0 0.0
2019-Aug-20 22:29N 43°42' E 007°17'0 0.0
2019-Aug-20 21:59N 43°42' E 007°17'0 0.0
2019-Aug-20 21:29N 43°42' E 007°17'0 0.0
2019-Aug-20 20:59N 43°42' E 007°17'0 0.0
2019-Aug-20 20:29N 43°42' E 007°17'0 0.0
2019-Aug-20 19:59N 43°42' E 007°17'0 0.0
2019-Aug-20 19:29N 43°42' E 007°17'0 0.0
2019-Aug-20 18:59N 43°42' E 007°17'0 0.0
2019-Aug-20 18:29N 43°42' E 007°17'0 0.0
2019-Aug-20 17:56N 43°42' E 007°17'0 0.0
2019-Aug-20 17:26N 43°42' E 007°17'0 0.0
2019-Aug-20 16:59N 43°42' E 007°17'0 0.0
2019-Aug-20 16:29N 43°42' E 007°17'0 0.0
2019-Aug-20 16:00N 43°42' E 007°17'4 8.3
2019-Aug-20 15:31N 43°39' E 007°21'611.0
2019-Aug-20 15:01N 43°35' E 007°27'611.1
2019-Aug-20 14:30N 43°32' E 007°33'611.2
2019-Aug-20 14:00N 43°29' E 007°40'611.1
2019-Aug-20 13:30N 43°26' E 007°46'510.9
2019-Aug-20 13:01N 43°23' E 007°52'2 3.1
2019-Aug-20 12:30N 43°22' E 007°54'0 0.3
2019-Aug-20 12:00N 43°22' E 007°54'0 0.2
2019-Aug-20 11:30N 43°22' E 007°54'1 2.0
2019-Aug-20 11:00N 43°22' E 007°53'1 2.0
2019-Aug-20 10:30N 43°22' E 007°54'0 0.7
2019-Aug-20 10:00N 43°22' E 007°54'0 0.2
2019-Aug-20 09:31N 43°22' E 007°54'4 7.3
2019-Aug-20 09:00N 43°24' E 007°50'510.7
2019-Aug-20 08:31N 43°27' E 007°44'510.6
2019-Aug-20 08:01N 43°30' E 007°38'510.6
2019-Aug-20 07:31N 43°33' E 007°32'510.7
2019-Aug-20 07:00N 43°36' E 007°26'510.7
2019-Aug-20 06:31N 43°40' E 007°20'3 6.0
2019-Aug-20 06:01N 43°42' E 007°17'0 0.0
2019-Aug-20 05:31N 43°42' E 007°17'1 1.1
2019-Aug-20 05:00N 43°41' E 007°17'1 3.0
2019-Aug-20 04:31N 43°40' E 007°16'3 6.7
2019-Aug-20 04:00N 43°37' E 007°14'3 6.4
2019-Aug-20 03:30N 43°34' E 007°12'3 6.5
2019-Aug-20 03:01N 43°31' E 007°10'3 6.4
2019-Aug-20 02:31N 43°28' E 007°08'3 6.5
2019-Aug-20 02:01N 43°26' E 007°05'3 6.4
2019-Aug-20 01:31N 43°23' E 007°03'3 6.5
2019-Aug-20 01:01N 43°20' E 007°01'3 6.5
2019-Aug-20 00:30N 43°17' E 006°58'3 6.5
2019-Aug-20 00:00N 43°15' E 006°56'3 6.4
2019-Aug-19 23:30N 43°12' E 006°54'3 6.6
2019-Aug-19 23:00N 43°09' E 006°52'3 6.8
2019-Aug-19 22:30N 43°06' E 006°49'4 6.1
2019-Aug-19 21:54N 43°04' E 006°45'3 6.1
2019-Aug-19 21:25N 43°03' E 006°42'3 6.3
2019-Aug-19 20:54N 43°02' E 006°37'3 6.2
2019-Aug-19 20:21N 43°01' E 006°33'8 6.3
2019-Aug-19 19:08N 42°58' E 006°23'3 6.4
2019-Aug-19 18:41N 42°58' E 006°19'3 6.6
2019-Aug-19 18:15N 42°57' E 006°15'15 8.2
2019-Aug-19 16:24N 43°05' E 005°57'2 6.2
2019-Aug-19 16:00N 43°06' E 005°54'1 1.6
2019-Aug-19 15:28N 43°06' E 005°53'0 0.0
2019-Aug-19 14:58N 43°06' E 005°53'0 0.0
2019-Aug-19 14:28N 43°06' E 005°53'0 0.0
2019-Aug-19 13:58N 43°06' E 005°53'0 0.0
2019-Aug-19 13:28N 43°06' E 005°53'0 0.0
2019-Aug-19 12:58N 43°06' E 005°53'0 0.0
2019-Aug-19 12:28N 43°06' E 005°53'0 0.0
2019-Aug-19 11:58N 43°06' E 005°53'0 0.0
2019-Aug-19 11:28N 43°06' E 005°53'0 0.0
2019-Aug-19 10:58N 43°06' E 005°53'0 0.0
2019-Aug-19 10:28N 43°06' E 005°53'0 0.0
2019-Aug-19 09:58N 43°06' E 005°53'0 0.0
2019-Aug-19 09:28N 43°06' E 005°53'0 0.0
2019-Aug-19 08:58N 43°06' E 005°53'0 0.0
2019-Aug-19 08:28N 43°06' E 005°53'0 0.0
2019-Aug-19 07:58N 43°06' E 005°53'0 0.0
2019-Aug-19 07:28N 43°06' E 005°53'0 0.0
2019-Aug-19 06:58N 43°06' E 005°53'0 0.0
2019-Aug-19 06:28N 43°06' E 005°53'0 0.0
2019-Aug-19 05:58N 43°06' E 005°53'0 0.0
2019-Aug-19 05:28N 43°06' E 005°53'0 0.0
2019-Aug-19 04:58N 43°06' E 005°53'0 0.0
2019-Aug-19 04:28N 43°06' E 005°53'0 0.0
2019-Aug-19 03:58N 43°06' E 005°53'0 0.0
2019-Aug-19 03:28N 43°06' E 005°53'0 0.0
2019-Aug-19 02:58N 43°06' E 005°53'0 0.0
2019-Aug-19 02:28N 43°06' E 005°53'0 0.0
2019-Aug-19 01:58N 43°06' E 005°53'0 0.0
2019-Aug-19 01:28N 43°06' E 005°53'0 0.0
2019-Aug-19 00:58N 43°06' E 005°53'0 0.0
2019-Aug-19 00:28N 43°06' E 005°53'0 0.0
2019-Aug-18 23:58N 43°06' E 005°53'0 0.0
2019-Aug-18 23:28N 43°06' E 005°53'0 0.0
2019-Aug-18 22:58N 43°06' E 005°53'0 0.0
2019-Aug-18 22:28N 43°06' E 005°53'0 0.0
2019-Aug-18 21:58N 43°06' E 005°53'0 0.0
2019-Aug-18 21:28N 43°06' E 005°53'0 0.0
2019-Aug-18 20:58N 43°06' E 005°53'0 0.0
2019-Aug-18 20:28N 43°06' E 005°53'0 0.0
2019-Aug-18 19:58N 43°06' E 005°53'0 0.0
2019-Aug-18 19:28N 43°06' E 005°53'0 0.0
2019-Aug-18 18:58N 43°06' E 005°53'0 0.0
2019-Aug-18 18:28N 43°06' E 005°53'0 0.0
2019-Aug-18 17:58N 43°06' E 005°53'0 0.0
2019-Aug-18 17:28N 43°06' E 005°53'0 0.0
2019-Aug-18 16:58N 43°06' E 005°53'0 0.0
2019-Aug-18 16:28N 43°06' E 005°53'0 0.0
2019-Aug-18 15:58N 43°06' E 005°53'0 0.0
2019-Aug-18 15:28N 43°06' E 005°53'0 0.0
2019-Aug-18 14:58N 43°06' E 005°53'0 0.0
2019-Aug-18 14:28N 43°06' E 005°53'  
Track history (hours):
 
Tides and Currents Weather Stations Pressure Air Temp Water Temp Dewpoint Dewpoint Depression Visibility Wind Speed Wind Dir Waves Ship Positions

Oceanographic research ship Thetys II (France)

Last reported at 2019-Aug-23 22:55 UTC. Time now 2019-Aug-24 09:55 UTC.
Position N 42°47' E 005°56'.

Length 25 m; beam 8 m.

Type: Ship. MMSI: 227212000.

Date/timePositionNaut miles runAvg speedWind from/ knotsBaromVisibWave heightAir tempDewpointWater temp
2019-Aug-23 22:55N 42°47' E 005°56'19 1.5
2019-Aug-23 09:54N 43°06' E 005°55'2 4.1
2019-Aug-23 09:30N 43°06' E 005°53'0 0.0
2019-Aug-23 09:00N 43°06' E 005°53'0 0.0
2019-Aug-23 08:30N 43°06' E 005°53'0 0.0
2019-Aug-23 08:00N 43°06' E 005°53'0 0.0
2019-Aug-23 07:30N 43°06' E 005°53'0 0.0
2019-Aug-23 07:00N 43°06' E 005°53'0 0.0
2019-Aug-23 06:30N 43°06' E 005°53'0 0.0
2019-Aug-23 06:00N 43°06' E 005°53'4 6.7
2019-Aug-23 05:29N 43°05' E 005°58'29 5.6
2019-Aug-23 00:10N 43°05' E 006°38'2 6.9
2019-Aug-22 23:54N 43°06' E 006°40'3 6.9
2019-Aug-22 23:30N 43°08' E 006°43'4 7.1
2019-Aug-22 23:01N 43°11' E 006°46'4 7.0
2019-Aug-22 22:30N 43°13' E 006°49'4 7.1
2019-Aug-22 22:01N 43°16' E 006°53'4 7.1
2019-Aug-22 21:31N 43°18' E 006°56'4 7.2
2019-Aug-22 21:01N 43°21' E 006°59'4 7.1
2019-Aug-22 20:31N 43°24' E 007°02'4 7.0
2019-Aug-22 20:01N 43°27' E 007°05'3 6.7
2019-Aug-22 19:31N 43°29' E 007°08'4 8.0
2019-Aug-22 19:01N 43°32' E 007°12'4 8.7
2019-Aug-22 18:31N 43°36' E 007°14'4 8.9
2019-Aug-22 18:00N 43°40' E 007°17'1 2.3
2019-Aug-22 17:29N 43°42' E 007°17'0 0.0
2019-Aug-22 16:59N 43°42' E 007°17'0 0.0
2019-Aug-22 16:29N 43°42' E 007°17'0 0.0
2019-Aug-22 15:59N 43°42' E 007°17'0 0.0
2019-Aug-22 15:29N 43°42' E 007°17'0 0.0
2019-Aug-22 14:59N 43°42' E 007°17'0 0.0
2019-Aug-22 14:26N 43°42' E 007°17'0 0.0
2019-Aug-22 13:59N 43°42' E 007°17'0 0.0
2019-Aug-22 13:29N 43°42' E 007°17'0 0.0
2019-Aug-22 12:59N 43°42' E 007°17'0 0.0
2019-Aug-22 12:29N 43°42' E 007°17'0 0.0
2019-Aug-22 11:53N 43°42' E 007°17'0 0.0
2019-Aug-22 11:23N 43°42' E 007°17'0 0.0
2019-Aug-22 10:59N 43°42' E 007°17'0 0.0
2019-Aug-22 10:29N 43°42' E 007°17'0 0.0
2019-Aug-22 09:59N 43°42' E 007°17'0 0.0
2019-Aug-22 09:29N 43°42' E 007°17'0 0.0
2019-Aug-22 08:59N 43°42' E 007°17'0 0.0
2019-Aug-22 08:29N 43°42' E 007°17'0 0.0
2019-Aug-22 07:59N 43°42' E 007°17'0 0.0
2019-Aug-22 07:29N 43°42' E 007°17'0 0.0
2019-Aug-22 06:59N 43°42' E 007°17'0 0.0
2019-Aug-22 06:26N 43°42' E 007°17'0 0.0
2019-Aug-22 05:59N 43°42' E 007°17'0 0.0
2019-Aug-22 05:26N 43°42' E 007°17'0 0.0
2019-Aug-22 04:59N 43°42' E 007°17'0 0.0
2019-Aug-22 04:29N 43°42' E 007°17'0 0.0
2019-Aug-22 03:59N 43°42' E 007°17'0 0.0
2019-Aug-22 03:29N 43°42' E 007°17'0 0.0
2019-Aug-22 02:59N 43°42' E 007°17'0 0.0
2019-Aug-22 02:26N 43°42' E 007°17'0 0.0
2019-Aug-22 01:59N 43°42' E 007°17'0 0.0
2019-Aug-22 01:29N 43°42' E 007°17'0 0.0
2019-Aug-22 00:56N 43°42' E 007°17'0 0.0
2019-Aug-22 00:29N 43°42' E 007°17'0 0.0
2019-Aug-21 23:59N 43°42' E 007°17'0 0.0
2019-Aug-21 23:29N 43°42' E 007°17'0 0.0
2019-Aug-21 22:59N 43°42' E 007°17'0 0.0
2019-Aug-21 22:29N 43°42' E 007°17'0 0.0
2019-Aug-21 21:59N 43°42' E 007°17'0 0.0
2019-Aug-21 21:29N 43°42' E 007°17'0 0.0
2019-Aug-21 20:59N 43°42' E 007°17'0 0.0
2019-Aug-21 20:29N 43°42' E 007°17'0 0.0
2019-Aug-21 19:59N 43°42' E 007°17'0 0.0
2019-Aug-21 19:30N 43°42' E 007°17'0 0.0
2019-Aug-21 19:00N 43°42' E 007°17'0 0.0
2019-Aug-21 18:30N 43°42' E 007°17'0 0.0
2019-Aug-21 18:00N 43°42' E 007°17'0 0.0
2019-Aug-21 17:30N 43°42' E 007°17'1 1.4
2019-Aug-21 17:00N 43°41' E 007°18'611.4
2019-Aug-21 16:30N 43°38' E 007°24'611.6
2019-Aug-21 16:00N 43°34' E 007°31'611.4
2019-Aug-21 15:30N 43°32' E 007°37'611.3
2019-Aug-21 15:00N 43°29' E 007°44'611.3
2019-Aug-21 14:30N 43°26' E 007°51'0 0.9
2019-Aug-21 14:01N 43°25' E 007°51'0 0.2
2019-Aug-21 13:30N 43°25' E 007°51'0 0.3
2019-Aug-21 13:00N 43°25' E 007°51'0 0.5
2019-Aug-21 12:30N 43°25' E 007°51'0 0.6
2019-Aug-21 12:01N 43°24' E 007°51'2 4.0
2019-Aug-21 11:30N 43°23' E 007°53'0 0.6
2019-Aug-21 11:00N 43°23' E 007°53'0 0.6
2019-Aug-21 10:30N 43°22' E 007°54'0 0.4
2019-Aug-21 10:01N 43°22' E 007°53'0 0.6
2019-Aug-21 09:31N 43°22' E 007°54'0 0.5
2019-Aug-21 08:52N 43°22' E 007°54'0 0.6
2019-Aug-21 08:22N 43°22' E 007°54'2 6.1
2019-Aug-21 08:00N 43°24' E 007°52'510.5
2019-Aug-21 07:30N 43°27' E 007°46'510.3
2019-Aug-21 07:00N 43°31' E 007°41'510.1
2019-Aug-21 06:30N 43°33' E 007°35'510.2
2019-Aug-21 06:00N 43°36' E 007°29'510.2
2019-Aug-21 05:30N 43°38' E 007°23'510.1
2019-Aug-21 05:00N 43°41' E 007°17'0 0.4
2019-Aug-21 04:29N 43°42' E 007°17'0 0.0
2019-Aug-21 03:59N 43°42' E 007°17'0 0.0
2019-Aug-21 03:29N 43°42' E 007°17'0 0.0
2019-Aug-21 02:59N 43°42' E 007°17'0 0.0
2019-Aug-21 02:29N 43°42' E 007°17'0 0.0
2019-Aug-21 01:59N 43°42' E 007°17'0 0.0
2019-Aug-21 01:29N 43°42' E 007°17'0 0.0
2019-Aug-21 00:59N 43°42' E 007°17'0 0.0
2019-Aug-21 00:29N 43°42' E 007°17'0 0.0
2019-Aug-20 23:56N 43°42' E 007°17'0 0.0
2019-Aug-20 23:29N 43°42' E 007°17'0 0.0
2019-Aug-20 22:59N 43°42' E 007°17'0 0.0
2019-Aug-20 22:29N 43°42' E 007°17'0 0.0
2019-Aug-20 21:59N 43°42' E 007°17'0 0.0
2019-Aug-20 21:29N 43°42' E 007°17'0 0.0
2019-Aug-20 20:59N 43°42' E 007°17'0 0.0
2019-Aug-20 20:29N 43°42' E 007°17'0 0.0
2019-Aug-20 19:59N 43°42' E 007°17'0 0.0
2019-Aug-20 19:29N 43°42' E 007°17'0 0.0
2019-Aug-20 18:59N 43°42' E 007°17'0 0.0
2019-Aug-20 18:29N 43°42' E 007°17'0 0.0
2019-Aug-20 17:56N 43°42' E 007°17'0 0.0
2019-Aug-20 17:26N 43°42' E 007°17'0 0.0
2019-Aug-20 16:59N 43°42' E 007°17'0 0.0
2019-Aug-20 16:29N 43°42' E 007°17'0 0.0
2019-Aug-20 16:00N 43°42' E 007°17'4 8.3
2019-Aug-20 15:31N 43°39' E 007°21'611.0
2019-Aug-20 15:01N 43°35' E 007°27'611.1
2019-Aug-20 14:30N 43°32' E 007°33'611.2
2019-Aug-20 14:00N 43°29' E 007°40'611.1
2019-Aug-20 13:30N 43°26' E 007°46'510.9
2019-Aug-20 13:01N 43°23' E 007°52'2 3.1
2019-Aug-20 12:30N 43°22' E 007°54'0 0.3
2019-Aug-20 12:00N 43°22' E 007°54'0 0.2
2019-Aug-20 11:30N 43°22' E 007°54'1 2.0
2019-Aug-20 11:00N 43°22' E 007°53'1 2.0
2019-Aug-20 10:30N 43°22' E 007°54'0 0.7
2019-Aug-20 10:00N 43°22' E 007°54'0 0.2
2019-Aug-20 09:31N 43°22' E 007°54'4 7.3
2019-Aug-20 09:00N 43°24' E 007°50'510.7
2019-Aug-20 08:31N 43°27' E 007°44'510.6
2019-Aug-20 08:01N 43°30' E 007°38'510.6
2019-Aug-20 07:31N 43°33' E 007°32'510.7
2019-Aug-20 07:00N 43°36' E 007°26'510.7
2019-Aug-20 06:31N 43°40' E 007°20'3 6.0
2019-Aug-20 06:01N 43°42' E 007°17'0 0.0
2019-Aug-20 05:31N 43°42' E 007°17'1 1.1
2019-Aug-20 05:00N 43°41' E 007°17'1 3.0
2019-Aug-20 04:31N 43°40' E 007°16'3 6.7
2019-Aug-20 04:00N 43°37' E 007°14'3 6.4
2019-Aug-20 03:30N 43°34' E 007°12'3 6.5
2019-Aug-20 03:01N 43°31' E 007°10'3 6.4
2019-Aug-20 02:31N 43°28' E 007°08'3 6.5
2019-Aug-20 02:01N 43°26' E 007°05'3 6.4
2019-Aug-20 01:31N 43°23' E 007°03'3 6.5
2019-Aug-20 01:01N 43°20' E 007°01'3 6.5
2019-Aug-20 00:30N 43°17' E 006°58'3 6.5
2019-Aug-20 00:00N 43°15' E 006°56'3 6.4
2019-Aug-19 23:30N 43°12' E 006°54'3 6.6
2019-Aug-19 23:00N 43°09' E 006°52'3 6.8
2019-Aug-19 22:30N 43°06' E 006°49'4 6.1
2019-Aug-19 21:54N 43°04' E 006°45'3 6.1
2019-Aug-19 21:25N 43°03' E 006°42'3 6.3
2019-Aug-19 20:54N 43°02' E 006°37'3 6.2
2019-Aug-19 20:21N 43°01' E 006°33'8 6.3
2019-Aug-19 19:08N 42°58' E 006°23'3 6.4
2019-Aug-19 18:41N 42°58' E 006°19'3 6.6
2019-Aug-19 18:15N 42°57' E 006°15'15 8.2
2019-Aug-19 16:24N 43°05' E 005°57'2 6.2
2019-Aug-19 16:00N 43°06' E 005°54'1 1.6
2019-Aug-19 15:28N 43°06' E 005°53'0 0.0
2019-Aug-19 14:58N 43°06' E 005°53'0 0.0
2019-Aug-19 14:28N 43°06' E 005°53'0 0.0
2019-Aug-19 13:58N 43°06' E 005°53'0 0.0
2019-Aug-19 13:28N 43°06' E 005°53'0 0.0
2019-Aug-19 12:58N 43°06' E 005°53'0 0.0
2019-Aug-19 12:28N 43°06' E 005°53'0 0.0
2019-Aug-19 11:58N 43°06' E 005°53'0 0.0
2019-Aug-19 11:28N 43°06' E 005°53'0 0.0
2019-Aug-19 10:58N 43°06' E 005°53'0 0.0
2019-Aug-19 10:28N 43°06' E 005°53'0 0.0
2019-Aug-19 09:58N 43°06' E 005°53'0 0.0
2019-Aug-19 09:28N 43°06' E 005°53'0 0.0
2019-Aug-19 08:58N 43°06' E 005°53'0 0.0
2019-Aug-19 08:28N 43°06' E 005°53'0 0.0
2019-Aug-19 07:58N 43°06' E 005°53'0 0.0
2019-Aug-19 07:28N 43°06' E 005°53'0 0.0
2019-Aug-19 06:58N 43°06' E 005°53'0 0.0
2019-Aug-19 06:28N 43°06' E 005°53'0 0.0
2019-Aug-19 05:58N 43°06' E 005°53'0 0.0
2019-Aug-19 05:28N 43°06' E 005°53'0 0.0
2019-Aug-19 04:58N 43°06' E 005°53'0 0.0
2019-Aug-19 04:28N 43°06' E 005°53'0 0.0
2019-Aug-19 03:58N 43°06' E 005°53'0 0.0
2019-Aug-19 03:28N 43°06' E 005°53'0 0.0
2019-Aug-19 02:58N 43°06' E 005°53'0 0.0
2019-Aug-19 02:28N 43°06' E 005°53'0 0.0
2019-Aug-19 01:58N 43°06' E 005°53'0 0.0
2019-Aug-19 01:28N 43°06' E 005°53'0 0.0
2019-Aug-19 00:58N 43°06' E 005°53'0 0.0
2019-Aug-19 00:28N 43°06' E 005°53'0 0.0
2019-Aug-18 23:58N 43°06' E 005°53'0 0.0
2019-Aug-18 23:28N 43°06' E 005°53'0 0.0
2019-Aug-18 22:58N 43°06' E 005°53'0 0.0
2019-Aug-18 22:28N 43°06' E 005°53'0 0.0
2019-Aug-18 21:58N 43°06' E 005°53'0 0.0
2019-Aug-18 21:28N 43°06' E 005°53'0 0.0
2019-Aug-18 20:58N 43°06' E 005°53'0 0.0
2019-Aug-18 20:28N 43°06' E 005°53'0 0.0
2019-Aug-18 19:58N 43°06' E 005°53'0 0.0
2019-Aug-18 19:28N 43°06' E 005°53'0 0.0
2019-Aug-18 18:58N 43°06' E 005°53'0 0.0
2019-Aug-18 18:28N 43°06' E 005°53'0 0.0
2019-Aug-18 17:58N 43°06' E 005°53'0 0.0
2019-Aug-18 17:28N 43°06' E 005°53'0 0.0
2019-Aug-18 16:58N 43°06' E 005°53'0 0.0
2019-Aug-18 16:28N 43°06' E 005°53'0 0.0
2019-Aug-18 15:58N 43°06' E 005°53'0 0.0
2019-Aug-18 15:28N 43°06' E 005°53'0 0.0
2019-Aug-18 14:58N 43°06' E 005°53'0 0.0
2019-Aug-18 14:28N 43°06' E 005°53'  

Dump ship's entire track history